Decoded Metar for KI43 ( in ) (IATA:) | Meteo·Mobile Aviation Weather
aviador You're here:

KI43 Decoded Metar

in
Report Time2020-02-22 21:55:00
UTC Time2020-02-22 21:57:43
Flight Rules vfr VFR
Wind220° at 08 kt
Visibility9999 m
Phenomena:N/A
Clouds:N/A
Expected CloudBase > 7,600 ft AGL from Temp-Dew spread
CeilingNone
Temp09°C
Dew Point-10°C (25% RH)
AAT3.1°C
QNH1027 hPa
Raw Report
KI43 222155Z AUTO 22008KT 10SM CLR 09/M10 A3032 RMK AO2=

Extra information for KI43:More info

Social comments